createdAt,value
2019-06-07T00:01:57.460Z,12.60
2019-06-07T00:04:29.307Z,12.80
2019-06-07T00:06:59.685Z,12.70
2019-06-07T00:09:29.830Z,12.70
2019-06-07T00:11:59.853Z,12.60
2019-06-07T00:14:29.888Z,12.60
2019-06-07T00:17:00.081Z,12.60
2019-06-07T00:19:31.050Z,12.70
2019-06-07T00:22:17.631Z,12.70
2019-06-07T00:24:32.799Z,12.70
2019-06-07T00:27:02.829Z,12.70
2019-06-07T00:29:33.063Z,12.70
2019-06-07T00:32:03.309Z,12.70
2019-06-07T00:34:33.206Z,12.70
2019-06-07T00:37:03.351Z,12.70
2019-06-07T00:39:33.468Z,12.70
2019-06-07T00:42:03.424Z,12.60
2019-06-07T00:44:34.884Z,12.70
2019-06-07T00:47:05.033Z,12.80
2019-06-07T00:49:40.970Z,12.80
2019-06-07T00:52:06.457Z,12.80
2019-06-07T00:54:36.604Z,12.80
2019-06-07T00:57:06.963Z,12.80
2019-06-07T00:59:37.231Z,12.80
2019-06-07T01:02:07.392Z,12.80
2019-06-07T01:04:37.360Z,12.80
2019-06-07T01:07:09.783Z,12.90
2019-06-07T01:09:40.006Z,12.80
2019-06-07T01:12:10.334Z,12.70
2019-06-07T01:14:40.594Z,12.70
2019-06-07T01:17:27.995Z,12.70
2019-06-07T01:19:45.364Z,12.70
2019-06-07T01:22:16.473Z,12.70
2019-06-07T01:24:47.099Z,12.70
2019-06-07T01:27:18.399Z,12.60
2019-06-07T01:29:48.988Z,12.70
2019-06-07T01:32:20.960Z,12.70
2019-06-07T01:34:50.743Z,12.60
2019-06-07T01:37:24.921Z,12.60
2019-06-07T01:39:52.479Z,12.60
2019-06-07T01:42:24.587Z,12.50
2019-06-07T01:44:55.490Z,12.40
2019-06-07T01:47:31.144Z,12.30
2019-06-07T01:49:57.393Z,12.30
2019-06-07T01:52:29.583Z,12.30
2019-06-07T01:54:59.358Z,12.20
2019-06-07T01:57:44.227Z,12.10
2019-06-07T02:00:01.301Z,12.10
2019-06-07T02:02:32.008Z,12.00
2019-06-07T02:05:02.333Z,11.90
2019-06-07T02:07:33.381Z,11.90
2019-06-07T02:10:04.805Z,11.90
2019-06-07T02:12:42.918Z,11.80
2019-06-07T02:15:08.681Z,11.80
2019-06-07T02:17:39.283Z,11.80
2019-06-07T02:20:09.582Z,11.80
2019-06-07T02:22:40.246Z,11.80
2019-06-07T02:25:37.183Z,11.80
2019-06-07T02:27:42.411Z,11.80
2019-06-07T02:32:45.376Z,11.80
2019-06-07T02:35:16.197Z,11.90
2019-06-07T02:37:46.277Z,11.90
2019-06-07T02:40:16.634Z,12.00
2019-06-07T02:42:46.608Z,12.00
2019-06-07T02:45:16.955Z,12.10
2019-06-07T02:47:48.127Z,12.10
2019-06-07T02:50:18.654Z,12.20
2019-06-07T02:52:49.132Z,12.20
2019-06-07T02:55:19.503Z,12.20
2019-06-07T02:57:50.144Z,12.20
2019-06-07T03:00:58.906Z,12.30
2019-06-07T03:03:10.736Z,12.40
2019-06-07T03:05:47.033Z,12.30
2019-06-07T03:08:17.806Z,12.40
2019-06-07T03:10:50.295Z,12.40
2019-06-07T03:13:21.944Z,12.40
2019-06-07T03:15:53.758Z,12.40
2019-06-07T03:18:29.090Z,12.40
2019-06-07T03:21:05.467Z,12.40
2019-06-07T03:23:33.592Z,12.40
2019-06-07T03:26:05.652Z,12.40
2019-06-07T03:28:37.566Z,12.40
2019-06-07T03:31:07.879Z,12.40
2019-06-07T03:33:42.856Z,12.40
2019-06-07T03:36:23.204Z,12.40
2019-06-07T03:38:41.641Z,12.40
2019-06-07T03:41:12.647Z,12.40
2019-06-07T03:43:42.566Z,12.60
2019-06-07T03:46:12.860Z,12.70
2019-06-07T03:48:43.383Z,12.80
2019-06-07T03:51:24.755Z,12.80
2019-06-07T03:53:45.284Z,12.90
2019-06-07T03:56:15.781Z,12.90
2019-06-07T03:58:50.267Z,13.00
2019-06-07T04:01:17.710Z,13.00
2019-06-07T04:03:51.852Z,13.00
2019-06-07T04:06:19.865Z,13.00
2019-06-07T04:08:50.095Z,13.10
2019-06-07T04:11:20.223Z,13.00
2019-06-07T04:13:50.427Z,13.10
2019-06-07T04:16:20.653Z,13.00
2019-06-07T04:18:50.972Z,13.10
2019-06-07T04:21:21.303Z,13.20
2019-06-07T04:23:51.416Z,13.10
2019-06-07T04:26:21.549Z,13.10
2019-06-07T04:29:31.869Z,13.10
2019-06-07T04:31:23.524Z,13.10
2019-06-07T04:33:53.498Z,13.00
2019-06-07T04:36:44.165Z,13.00
2019-06-07T04:38:57.326Z,13.00
2019-06-07T04:41:31.010Z,12.90
2019-06-07T04:44:02.509Z,12.90
2019-06-07T04:46:35.216Z,12.80
2019-06-07T04:49:04.686Z,12.80
2019-06-07T04:51:37.218Z,12.80
2019-06-07T04:54:07.720Z,12.80
2019-06-07T04:56:42.118Z,12.80
2019-06-07T04:59:09.930Z,13.00
2019-06-07T05:01:42.770Z,13.10
2019-06-07T05:04:12.967Z,13.20
2019-06-07T05:06:46.665Z,13.30
2019-06-07T05:09:16.593Z,13.40
2019-06-07T05:11:46.626Z,13.50
2019-06-07T05:14:16.572Z,13.70
2019-06-07T05:16:46.574Z,13.90
2019-06-07T05:19:16.531Z,14.00
2019-06-07T05:22:02.423Z,14.10
2019-06-07T05:24:18.796Z,14.10
2019-06-07T05:26:48.865Z,14.00
2019-06-07T05:29:18.879Z,14.00
2019-06-07T05:31:51.785Z,14.10
2019-06-07T05:34:22.206Z,14.50
2019-06-07T05:37:10.395Z,15.30
2019-06-07T05:39:23.783Z,16.00
2019-06-07T05:41:54.049Z,16.80
2019-06-07T05:44:24.205Z,17.40
2019-06-07T05:46:54.365Z,17.90
2019-06-07T05:49:24.338Z,18.20
2019-06-07T05:51:54.569Z,18.40
2019-06-07T05:54:24.729Z,18.70
2019-06-07T05:56:54.942Z,19.20
2019-06-07T05:59:24.970Z,19.50
2019-06-07T06:02:02.606Z,19.60
2019-06-07T06:04:27.242Z,19.80
2019-06-07T06:06:57.417Z,20.10
2019-06-07T06:09:27.695Z,20.30
2019-06-07T06:12:02.322Z,20.30
2019-06-07T06:14:29.709Z,20.50
2019-06-07T06:16:59.702Z,20.60
2019-06-07T06:19:29.611Z,20.60
2019-06-07T06:21:59.540Z,20.90
2019-06-07T06:24:29.601Z,21.10
2019-06-07T06:27:15.267Z,21.30
2019-06-07T06:29:31.911Z,21.60
2019-06-07T06:32:40.460Z,21.50
2019-06-07T06:34:34.141Z,21.60
2019-06-07T06:37:04.189Z,21.60
2019-06-07T06:39:34.438Z,21.60
2019-06-07T06:42:04.673Z,21.40
2019-06-07T06:44:34.848Z,21.60
2019-06-07T06:47:04.939Z,21.80
2019-06-07T06:49:34.922Z,21.80
2019-06-07T06:52:05.252Z,22.10
2019-06-07T06:54:43.125Z,22.20
2019-06-07T06:57:18.921Z,22.40
2019-06-07T06:59:41.267Z,22.50
2019-06-07T07:02:11.385Z,22.30
2019-06-07T07:04:42.313Z,21.90
2019-06-07T07:07:13.678Z,21.30
2019-06-07T07:09:47.639Z,21.20
2019-06-07T07:12:15.496Z,21.10
2019-06-07T07:14:47.875Z,20.80
2019-06-07T07:17:17.517Z,20.30
2019-06-07T07:19:49.881Z,20.10
2019-06-07T07:22:19.388Z,20.50
2019-06-07T07:24:51.799Z,21.30
2019-06-07T07:27:21.191Z,21.90
2019-06-07T07:30:10.303Z,21.90
2019-06-07T07:32:23.167Z,22.40
2019-06-07T07:35:00.015Z,22.10
2019-06-07T07:37:29.069Z,22.00
2019-06-07T07:40:09.724Z,22.60
2019-06-07T07:42:31.100Z,23.40
2019-06-07T07:45:01.098Z,23.90
2019-06-07T07:47:31.255Z,24.30
2019-06-07T07:50:01.331Z,24.50
2019-06-07T07:52:31.579Z,24.50
2019-06-07T07:55:01.649Z,23.80
2019-06-07T07:57:31.609Z,24.00
2019-06-07T08:00:48.187Z,24.20
2019-06-07T08:02:33.450Z,23.80
2019-06-07T08:05:21.884Z,24.40
2019-06-07T08:07:36.939Z,24.80
2019-06-07T08:10:07.716Z,25.00
2019-06-07T08:13:00.765Z,25.70
2019-06-07T08:15:09.972Z,25.90
2019-06-07T08:17:40.137Z,26.00
2019-06-07T08:20:10.844Z,25.80
2019-06-07T08:22:41.039Z,26.00
2019-06-07T08:25:11.846Z,26.30
2019-06-07T08:27:42.062Z,26.20
2019-06-07T08:30:46.991Z,25.60
2019-06-07T08:32:45.183Z,26.00
2019-06-07T08:36:02.481Z,26.50
2019-06-07T08:40:20.255Z,26.70
2019-06-07T08:43:10.277Z,27.00
2019-06-07T08:45:22.271Z,27.40
2019-06-07T08:47:58.039Z,27.50
2019-06-07T08:50:24.506Z,27.40
2019-06-07T08:53:00.049Z,27.50
2019-06-07T08:55:26.446Z,27.50
2019-06-07T08:58:02.237Z,26.90
2019-06-07T09:00:45.506Z,26.40
2019-06-07T09:03:05.162Z,26.90
2019-06-07T09:05:32.339Z,27.30
2019-06-07T09:08:26.139Z,27.70
2019-06-07T09:10:34.312Z,27.80
2019-06-07T09:13:10.984Z,27.70
2019-06-07T09:15:36.274Z,28.00
2019-06-07T09:20:46.161Z,28.30
2019-06-07T09:23:17.762Z,27.50
2019-06-07T09:25:57.187Z,26.30
2019-06-07T09:28:21.465Z,25.60
2019-06-07T09:30:52.121Z,25.00
2019-06-07T09:33:23.031Z,25.50
2019-06-07T09:35:53.681Z,25.40
2019-06-07T09:38:26.135Z,25.20
2019-06-07T09:40:57.436Z,25.00
2019-06-07T09:46:04.020Z,25.50
2019-06-07T09:49:10.014Z,26.20
2019-06-07T09:51:09.889Z,26.90
2019-06-07T09:53:35.345Z,27.20
2019-06-07T09:56:08.981Z,27.60
2019-06-07T09:58:54.184Z,27.90
2019-06-07T10:01:13.316Z,27.70
2019-06-07T10:03:41.551Z,28.00
2019-06-07T10:06:13.732Z,27.40
2019-06-07T10:10:04.765Z,27.60
2019-06-07T10:11:18.610Z,27.60
2019-06-07T10:13:49.183Z,26.90
2019-06-07T10:16:19.498Z,26.50
2019-06-07T10:18:49.760Z,25.90
2019-06-07T10:21:19.893Z,26.50
2019-06-07T10:23:49.970Z,26.80
2019-06-07T10:26:19.989Z,27.30
2019-06-07T10:28:53.620Z,26.70
2019-06-07T10:31:24.044Z,26.70
2019-06-07T10:33:54.162Z,26.80
2019-06-07T10:36:24.190Z,27.30
2019-06-07T10:38:54.155Z,27.90
2019-06-07T10:41:24.439Z,27.30
2019-06-07T10:43:54.476Z,27.10
2019-06-07T10:46:24.596Z,26.50
2019-06-07T10:48:54.826Z,26.70
2019-06-07T10:51:24.997Z,26.80
2019-06-07T10:53:55.028Z,26.30
2019-06-07T10:56:25.073Z,26.30
2019-06-07T10:58:55.060Z,26.30
2019-06-07T11:01:25.301Z,25.90
2019-06-07T11:03:55.140Z,25.70
2019-06-07T11:06:25.322Z,25.80
2019-06-07T11:08:55.448Z,25.70
2019-06-07T11:11:26.925Z,25.50
2019-06-07T11:13:57.230Z,25.80
2019-06-07T11:16:27.181Z,25.80
2019-06-07T11:18:57.232Z,26.10
2019-06-07T11:21:27.375Z,26.50
2019-06-07T11:23:57.476Z,26.40
2019-06-07T11:26:27.732Z,25.70
2019-06-07T11:28:58.158Z,24.90
2019-06-07T11:31:28.504Z,24.80
2019-06-07T11:33:58.818Z,25.10
2019-06-07T11:36:29.028Z,25.90
2019-06-07T11:38:59.222Z,26.20
2019-06-07T11:41:29.409Z,26.30
2019-06-07T11:43:59.667Z,25.60
2019-06-07T11:46:29.679Z,25.00
2019-06-07T11:49:00.055Z,25.40
2019-06-07T11:51:30.483Z,26.30
2019-06-07T11:54:03.040Z,26.70
2019-06-07T11:56:33.625Z,26.20
2019-06-07T11:59:03.796Z,25.20
2019-06-07T12:01:37.209Z,25.40
2019-06-07T12:04:07.317Z,25.00
2019-06-07T12:06:37.507Z,24.90
2019-06-07T12:09:08.612Z,25.00
2019-06-07T12:11:39.112Z,25.50
2019-06-07T12:14:10.874Z,25.80
2019-06-07T12:16:40.978Z,25.30
2019-06-07T12:19:11.865Z,24.90
2019-06-07T12:21:42.154Z,24.90
2019-06-07T12:24:12.190Z,24.40
2019-06-07T12:26:42.595Z,24.90
2019-06-07T12:29:12.865Z,25.30
2019-06-07T12:31:43.329Z,25.40
2019-06-07T12:34:13.417Z,25.60
2019-06-07T12:36:43.563Z,26.00
2019-06-07T12:39:13.920Z,25.90
2019-06-07T12:41:44.453Z,25.10
2019-06-07T12:44:14.644Z,25.60
2019-06-07T12:46:45.025Z,25.40
2019-06-07T12:49:16.944Z,24.90
2019-06-07T12:51:47.270Z,25.00
2019-06-07T12:54:17.574Z,25.20
2019-06-07T12:56:47.838Z,26.00
2019-06-07T12:59:18.063Z,25.60
2019-06-07T13:01:48.479Z,25.50
2019-06-07T13:04:20.430Z,25.30
2019-06-07T13:06:50.643Z,24.80
2019-06-07T13:09:21.877Z,24.30
2019-06-07T13:11:52.032Z,24.10
2019-06-07T13:14:22.154Z,24.00
2019-06-07T13:16:52.107Z,23.60
2019-06-07T13:19:22.281Z,23.30
2019-06-07T13:21:52.423Z,23.70
2019-06-07T13:24:22.909Z,23.90
2019-06-07T13:26:52.754Z,24.00
2019-06-07T13:29:22.878Z,24.10
2019-06-07T13:31:52.978Z,24.20
2019-06-07T13:34:24.195Z,24.40
2019-06-07T13:36:54.211Z,24.50
2019-06-07T13:39:26.460Z,24.60
2019-06-07T13:41:57.769Z,24.50
2019-06-07T13:44:29.323Z,24.20
2019-06-07T13:46:59.664Z,24.00
2019-06-07T13:49:29.702Z,24.00
2019-06-07T13:51:59.817Z,24.00
2019-06-07T13:54:30.029Z,23.70
2019-06-07T13:57:02.603Z,23.60
2019-06-07T13:59:32.044Z,23.80
2019-06-07T14:02:02.436Z,24.10
2019-06-07T14:04:32.567Z,23.50
2019-06-07T14:07:02.706Z,23.20
2019-06-07T14:09:32.763Z,23.40
2019-06-07T14:12:02.743Z,23.80
2019-06-07T14:14:32.817Z,24.10
2019-06-07T14:17:02.933Z,24.00
2019-06-07T14:19:32.998Z,23.40
2019-06-07T14:22:03.345Z,22.80
2019-06-07T14:24:33.615Z,22.80
2019-06-07T14:27:06.385Z,22.80
2019-06-07T14:29:41.833Z,23.10
2019-06-07T14:32:12.244Z,23.50
2019-06-07T14:34:42.398Z,23.50
2019-06-07T14:37:12.508Z,23.30
2019-06-07T14:39:42.481Z,22.90
2019-06-07T14:42:12.605Z,23.10
2019-06-07T14:44:42.751Z,23.30
2019-06-07T14:47:12.787Z,23.20
2019-06-07T14:49:42.789Z,23.20
2019-06-07T14:52:12.833Z,22.80
2019-06-07T14:54:42.773Z,22.60
2019-06-07T14:57:12.803Z,23.00
2019-06-07T14:59:42.667Z,23.40
2019-06-07T15:02:12.730Z,23.10
2019-06-07T15:04:43.290Z,23.00
2019-06-07T15:07:15.941Z,22.90
2019-06-07T15:09:46.213Z,23.10
2019-06-07T15:12:25.007Z,23.20
2019-06-07T15:14:48.235Z,22.80
2019-06-07T15:17:18.631Z,22.30
2019-06-07T15:19:48.896Z,22.30
2019-06-07T15:22:19.298Z,22.20
2019-06-07T15:24:49.623Z,22.40
2019-06-07T15:27:19.884Z,22.50
2019-06-07T15:29:49.996Z,22.60
2019-06-07T15:32:20.082Z,22.60
2019-06-07T15:34:50.273Z,22.80
2019-06-07T15:37:20.551Z,23.00
2019-06-07T15:39:50.728Z,23.10
2019-06-07T15:42:20.834Z,22.90
2019-06-07T15:44:50.886Z,23.10
2019-06-07T15:47:20.875Z,23.10
2019-06-07T15:49:51.029Z,23.00
2019-06-07T15:52:21.482Z,22.60
2019-06-07T15:54:51.771Z,22.40
2019-06-07T15:57:22.074Z,22.40
2019-06-07T15:59:52.220Z,22.30
2019-06-07T16:02:22.360Z,22.30
2019-06-07T16:04:52.293Z,22.00
2019-06-07T16:07:22.396Z,21.50
2019-06-07T16:09:52.484Z,21.50
2019-06-07T16:12:22.747Z,21.60
2019-06-07T16:14:53.325Z,21.70
2019-06-07T16:17:23.504Z,21.90
2019-06-07T16:19:53.816Z,21.90
2019-06-07T16:22:24.259Z,22.00
2019-06-07T16:24:54.465Z,22.10
2019-06-07T16:27:24.792Z,22.10
2019-06-07T16:29:54.834Z,22.20
2019-06-07T16:32:24.800Z,22.10
2019-06-07T16:34:55.047Z,21.70
2019-06-07T16:37:25.060Z,21.80
2019-06-07T16:39:55.140Z,21.60
2019-06-07T16:42:25.470Z,21.50
2019-06-07T16:44:55.829Z,21.60
2019-06-07T16:47:26.079Z,21.50
2019-06-07T16:49:57.276Z,21.40
2019-06-07T16:52:27.578Z,21.60
2019-06-07T16:54:57.866Z,21.70
2019-06-07T16:57:29.182Z,21.80
2019-06-07T16:59:59.379Z,21.70
2019-06-07T17:02:30.242Z,21.60
2019-06-07T17:05:00.213Z,21.60
2019-06-07T17:07:30.296Z,21.60
2019-06-07T17:10:00.280Z,21.60
2019-06-07T17:12:30.325Z,21.50
2019-06-07T17:15:00.297Z,21.60
2019-06-07T17:17:30.265Z,21.50
2019-06-07T17:20:00.240Z,21.40
2019-06-07T17:22:30.223Z,21.40
2019-06-07T17:25:00.603Z,21.40
2019-06-07T17:27:31.001Z,21.00
2019-06-07T17:30:01.381Z,20.90
2019-06-07T17:32:47.396Z,20.70
2019-06-07T17:35:03.320Z,20.80
2019-06-07T17:37:33.730Z,20.70
2019-06-07T17:40:07.174Z,20.40
2019-06-07T17:42:37.321Z,20.40
2019-06-07T17:45:08.566Z,20.30
2019-06-07T17:47:38.659Z,20.20
2019-06-07T17:50:09.723Z,20.20
2019-06-07T17:52:40.082Z,20.20
2019-06-07T17:55:10.496Z,20.20
2019-06-07T17:57:40.387Z,20.20
2019-06-07T18:00:29.203Z,20.10
2019-06-07T18:02:44.738Z,19.90
2019-06-07T18:05:15.380Z,20.00
2019-06-07T18:07:47.763Z,19.70
2019-06-07T18:10:35.586Z,19.80
2019-06-07T18:13:06.206Z,19.70
2019-06-07T18:15:39.133Z,19.70
2019-06-07T18:18:09.345Z,19.70
2019-06-07T18:20:39.643Z,19.60
2019-06-07T18:23:09.958Z,19.40
2019-06-07T18:25:40.700Z,19.20
2019-06-07T18:28:11.026Z,19.10
2019-06-07T18:30:41.022Z,19.00
2019-06-07T18:33:10.965Z,19.00
2019-06-07T18:35:40.870Z,18.90
2019-06-07T18:38:11.230Z,18.80
2019-06-07T18:40:42.039Z,18.80
2019-06-07T18:43:11.935Z,18.70
2019-06-07T18:45:41.969Z,18.60
2019-06-07T18:48:11.947Z,18.60
2019-06-07T18:50:41.843Z,18.60
2019-06-07T18:53:11.830Z,18.70
2019-06-07T18:55:41.820Z,18.70
2019-06-07T18:58:11.792Z,18.80
2019-06-07T19:00:47.195Z,18.60
2019-06-07T19:03:17.520Z,18.60
2019-06-07T19:05:48.070Z,18.50
2019-06-07T19:08:18.090Z,18.40
2019-06-07T19:10:48.642Z,18.40
2019-06-07T19:13:18.832Z,18.20
2019-06-07T19:15:49.362Z,18.10
2019-06-07T19:18:19.370Z,18.10
2019-06-07T19:20:50.617Z,18.10
2019-06-07T19:23:21.584Z,18.00
2019-06-07T19:25:52.200Z,17.90
2019-06-07T19:28:22.345Z,17.70
2019-06-07T19:30:53.021Z,17.70
2019-06-07T19:33:23.001Z,17.70
2019-06-07T19:35:53.454Z,17.60
2019-06-07T19:38:23.560Z,17.50
2019-06-07T19:40:53.775Z,17.50
2019-06-07T19:43:23.689Z,17.40
2019-06-07T19:45:54.056Z,17.30
2019-06-07T19:48:24.054Z,17.30
2019-06-07T19:50:54.933Z,17.30
2019-06-07T19:53:24.781Z,17.30
2019-06-07T19:55:55.044Z,17.30
2019-06-07T19:58:25.030Z,17.40
2019-06-07T20:00:55.541Z,17.50
2019-06-07T20:03:25.736Z,17.50
2019-06-07T20:05:56.519Z,17.50
2019-06-07T20:08:26.595Z,17.40
2019-06-07T20:10:56.896Z,17.50
2019-06-07T20:13:27.050Z,17.40
2019-06-07T20:15:58.727Z,17.20
2019-06-07T20:18:29.184Z,17.20
2019-06-07T20:21:00.576Z,17.30
2019-06-07T20:23:30.900Z,17.30
2019-06-07T20:26:02.359Z,17.30
2019-06-07T20:28:32.659Z,17.10
2019-06-07T20:31:03.918Z,17.00
2019-06-07T20:33:34.070Z,17.00
2019-06-07T20:36:04.866Z,17.00
2019-06-07T20:38:34.913Z,17.10
2019-06-07T20:41:05.636Z,17.10
2019-06-07T20:43:35.834Z,17.10
2019-06-07T20:46:06.681Z,17.10
2019-06-07T20:48:37.611Z,17.00
2019-06-07T20:51:08.664Z,17.00
2019-06-07T20:53:38.948Z,17.00
2019-06-07T20:56:09.257Z,17.00
2019-06-07T20:58:39.636Z,16.90
2019-06-07T21:01:09.808Z,16.90
2019-06-07T21:03:39.750Z,17.00
2019-06-07T21:06:10.085Z,17.00
2019-06-07T21:08:40.295Z,17.00
2019-06-07T21:11:10.413Z,17.00
2019-06-07T21:13:40.779Z,17.00
2019-06-07T21:16:10.759Z,16.90
2019-06-07T21:18:40.811Z,17.00
2019-06-07T21:21:10.779Z,16.90
2019-06-07T21:23:40.687Z,17.10
2019-06-07T21:26:11.128Z,17.00
2019-06-07T21:28:41.090Z,16.90
2019-06-07T21:31:12.445Z,16.90
2019-06-07T21:33:42.467Z,16.80
2019-06-07T21:36:12.622Z,16.80
2019-06-07T21:38:42.770Z,16.80
2019-06-07T21:41:14.528Z,16.90
2019-06-07T21:43:44.671Z,16.70
2019-06-07T21:46:20.311Z,16.50
2019-06-07T21:48:46.832Z,16.60
2019-06-07T21:51:18.465Z,16.60
2019-06-07T21:53:48.635Z,16.50
2019-06-07T21:56:18.911Z,16.50
2019-06-07T21:58:50.075Z,16.50
2019-06-07T22:01:21.662Z,16.60
2019-06-07T22:03:52.093Z,16.50
2019-06-07T22:06:22.244Z,16.30
2019-06-07T22:08:59.120Z,16.40
2019-06-07T22:11:30.074Z,16.40
2019-06-07T22:14:00.716Z,16.40
2019-06-07T22:16:31.594Z,16.40
2019-06-07T22:19:02.163Z,16.40
2019-06-07T22:21:32.870Z,16.40
2019-06-07T22:24:04.683Z,16.30
2019-06-07T22:26:35.736Z,16.30
2019-06-07T22:29:06.326Z,16.20
2019-06-07T22:31:36.787Z,16.20
2019-06-07T22:34:06.869Z,16.30
2019-06-07T22:36:37.030Z,16.40
2019-06-07T22:39:07.589Z,16.50
2019-06-07T22:41:38.121Z,16.40
2019-06-07T22:44:08.706Z,16.40
2019-06-07T22:46:38.937Z,16.40
2019-06-07T22:49:09.238Z,16.40
2019-06-07T22:51:39.595Z,16.30
2019-06-07T22:54:09.963Z,16.30
2019-06-07T22:56:45.205Z,16.30
2019-06-07T22:59:18.550Z,16.40
2019-06-07T23:01:47.478Z,16.40
2019-06-07T23:04:19.277Z,16.40
2019-06-07T23:06:51.982Z,16.40
2019-06-07T23:09:21.146Z,16.40
2019-06-07T23:11:51.314Z,16.40
2019-06-07T23:14:21.447Z,16.50
2019-06-07T23:16:55.382Z,16.50
2019-06-07T23:19:23.270Z,16.40
2019-06-07T23:21:53.481Z,16.50
2019-06-07T23:24:23.600Z,16.50
2019-06-07T23:26:53.574Z,16.50
2019-06-07T23:29:23.646Z,16.50
2019-06-07T23:31:53.539Z,16.50
2019-06-07T23:34:23.658Z,16.50
2019-06-07T23:36:54.279Z,16.50
2019-06-07T23:39:24.610Z,16.50
2019-06-07T23:41:54.822Z,16.50
2019-06-07T23:44:25.066Z,16.60
2019-06-07T23:47:10.161Z,16.60
2019-06-07T23:49:29.169Z,16.50
2019-06-07T23:51:59.553Z,16.50
2019-06-07T23:54:29.844Z,16.60
2019-06-07T23:57:00.144Z,16.50
2019-06-07T23:59:30.190Z,16.50
